createdAt,value
2022-09-10T00:00:25.280Z,15.24
2022-09-10T00:00:56.924Z,15.24
2022-09-10T00:01:30.714Z,15.25
2022-09-10T00:02:02.124Z,15.24
2022-09-10T00:02:33.874Z,15.24
2022-09-10T00:03:05.878Z,15.24
2022-09-10T00:03:37.399Z,15.23
2022-09-10T00:04:13.643Z,15.20
2022-09-10T00:04:45.013Z,15.19
2022-09-10T00:05:16.674Z,15.16
2022-09-10T00:05:48.328Z,15.18
2022-09-10T00:06:19.678Z,15.19
2022-09-10T00:06:51.290Z,15.19
2022-09-10T00:07:22.895Z,15.19
2022-09-10T00:07:54.793Z,15.21
2022-09-10T00:08:26.366Z,15.20
2022-09-10T00:08:58.950Z,15.19
2022-09-10T00:09:30.266Z,15.18
2022-09-10T00:10:01.775Z,15.17
2022-09-10T00:10:41.617Z,15.14
2022-09-10T00:11:14.934Z,15.16
2022-09-10T00:11:46.433Z,15.15
2022-09-10T00:12:17.807Z,15.16
2022-09-10T00:12:49.189Z,15.12
2022-09-10T00:13:22.361Z,15.15
2022-09-10T00:13:53.748Z,15.12
2022-09-10T00:14:25.119Z,15.14
2022-09-10T00:14:56.482Z,15.13
2022-09-10T00:15:27.803Z,15.16
2022-09-10T00:16:03.120Z,15.14
2022-09-10T00:16:34.994Z,15.15
2022-09-10T00:17:06.682Z,15.16
2022-09-10T00:17:39.232Z,15.15
2022-09-10T00:18:11.719Z,15.17
2022-09-10T00:18:43.212Z,15.17
2022-09-10T00:19:16.050Z,15.18
2022-09-10T00:19:47.550Z,15.16
2022-09-10T00:20:19.023Z,15.17
2022-09-10T00:20:52.849Z,15.19
2022-09-10T00:21:24.421Z,15.19
2022-09-10T00:21:55.932Z,15.17
2022-09-10T00:22:27.497Z,15.19
2022-09-10T00:22:58.814Z,15.19
2022-09-10T00:23:30.327Z,15.21
2022-09-10T00:24:02.700Z,15.18
2022-09-10T00:24:34.388Z,15.20
2022-09-10T00:25:08.309Z,15.23
2022-09-10T00:25:40.088Z,15.23
2022-09-10T00:26:26.565Z,15.25
2022-09-10T00:26:59.489Z,15.23
2022-09-10T00:27:30.880Z,15.25
2022-09-10T00:28:04.140Z,15.24
2022-09-10T00:28:35.443Z,15.26
2022-09-10T00:29:09.509Z,15.25
2022-09-10T00:29:41.087Z,15.27
2022-09-10T00:30:12.903Z,15.26
2022-09-10T00:30:49.656Z,15.26
2022-09-10T00:31:22.605Z,15.25
2022-09-10T00:31:54.874Z,15.25
2022-09-10T00:32:26.160Z,15.26
2022-09-10T00:32:57.519Z,15.25
2022-09-10T00:33:29.984Z,15.26
2022-09-10T00:34:02.242Z,15.26
2022-09-10T00:34:34.372Z,15.26
2022-09-10T00:35:06.868Z,15.28
2022-09-10T00:35:40.213Z,15.27
2022-09-10T00:36:16.540Z,15.27
2022-09-10T00:36:47.869Z,15.27
2022-09-10T00:37:19.162Z,15.27
2022-09-10T00:37:50.483Z,15.27
2022-09-10T00:38:21.803Z,15.27
2022-09-10T00:38:55.536Z,15.27
2022-09-10T00:39:27.104Z,15.25
2022-09-10T00:39:59.138Z,15.25
2022-09-10T00:40:31.511Z,15.26
2022-09-10T00:41:05.474Z,15.26
2022-09-10T00:41:40.000Z,15.27
2022-09-10T00:42:11.947Z,15.29
2022-09-10T00:42:43.507Z,15.29
2022-09-10T00:43:21.068Z,15.30
2022-09-10T00:44:02.986Z,15.28
2022-09-10T00:44:37.277Z,15.28
2022-09-10T00:45:17.247Z,15.28
2022-09-10T00:45:54.832Z,15.29
2022-09-10T00:46:34.877Z,15.27
2022-09-10T00:47:33.646Z,15.27
2022-09-10T00:48:32.460Z,15.25
2022-09-10T00:49:21.289Z,15.26
2022-09-10T00:50:00.684Z,15.25
2022-09-10T00:50:35.845Z,15.26
2022-09-10T00:51:07.160Z,15.24
2022-09-10T00:51:38.751Z,15.25
2022-09-10T00:52:11.846Z,15.27
2022-09-10T00:52:44.601Z,15.25
2022-09-10T00:53:21.751Z,15.26
2022-09-10T00:53:54.103Z,15.24
2022-09-10T00:54:28.126Z,15.26
2022-09-10T00:54:59.755Z,15.27
2022-09-10T00:55:32.110Z,15.26
2022-09-10T00:56:04.924Z,15.23
2022-09-10T00:56:37.123Z,15.26
2022-09-10T00:57:13.618Z,15.26
2022-09-10T00:57:47.526Z,15.27
2022-09-10T00:58:20.730Z,15.27
2022-09-10T00:58:52.863Z,15.27
2022-09-10T00:59:26.458Z,15.26
2022-09-10T01:00:06.441Z,15.27
2022-09-10T01:00:38.214Z,15.27
2022-09-10T01:01:10.408Z,15.26
2022-09-10T01:01:42.497Z,15.25
2022-09-10T01:02:14.815Z,15.27
2022-09-10T01:02:47.092Z,15.25
2022-09-10T01:03:22.445Z,15.25
2022-09-10T01:03:56.477Z,15.25
2022-09-10T01:04:28.763Z,15.24
2022-09-10T01:05:01.905Z,15.23
2022-09-10T01:05:34.329Z,15.25
2022-09-10T01:06:06.177Z,15.25
2022-09-10T01:06:40.227Z,15.26
2022-09-10T01:07:13.574Z,15.27
2022-09-10T01:07:44.984Z,15.26
2022-09-10T01:08:17.945Z,15.26
2022-09-10T01:08:49.306Z,15.25
2022-09-10T01:09:23.519Z,15.25
2022-09-10T01:10:01.393Z,15.24
2022-09-10T01:10:43.217Z,15.24
2022-09-10T01:11:34.058Z,15.25
2022-09-10T01:12:19.743Z,15.23
2022-09-10T01:13:18.644Z,15.22
2022-09-10T01:14:20.599Z,15.21
2022-09-10T01:15:13.136Z,15.19
2022-09-10T01:15:55.042Z,15.18
2022-09-10T01:16:36.766Z,15.18
2022-09-10T01:17:44.977Z,15.17
2022-09-10T01:18:16.230Z,15.18
2022-09-10T01:19:02.276Z,15.18
2022-09-10T01:20:08.922Z,15.17
2022-09-10T01:20:45.908Z,15.16
2022-09-10T01:21:23.664Z,15.16
2022-09-10T01:22:22.015Z,15.16
2022-09-10T01:23:17.710Z,15.17
2022-09-10T01:24:07.360Z,15.18
2022-09-10T01:24:54.328Z,15.18
2022-09-10T01:25:46.311Z,15.17
2022-09-10T01:26:26.988Z,15.18
2022-09-10T01:27:26.851Z,15.19
2022-09-10T01:28:04.752Z,15.20
2022-09-10T01:28:48.764Z,15.20
2022-09-10T01:29:28.251Z,15.19
2022-09-10T01:30:11.216Z,15.18
2022-09-10T01:30:46.660Z,15.19
2022-09-10T01:31:25.667Z,15.19
2022-09-10T01:32:03.580Z,15.18
2022-09-10T01:32:44.477Z,15.15
2022-09-10T01:33:38.488Z,15.14
2022-09-10T01:34:34.361Z,15.16
2022-09-10T01:35:05.749Z,15.16
2022-09-10T01:35:40.172Z,15.15
2022-09-10T01:36:21.160Z,15.14
2022-09-10T01:36:58.135Z,15.13
2022-09-10T01:37:31.029Z,15.15
2022-09-10T01:38:09.473Z,15.15
2022-09-10T01:38:43.917Z,15.16
2022-09-10T01:39:18.778Z,15.16
2022-09-10T01:39:52.921Z,15.15
2022-09-10T01:40:29.637Z,15.17
2022-09-10T01:41:01.533Z,15.16
2022-09-10T01:41:32.868Z,15.15
2022-09-10T01:42:04.701Z,15.16
2022-09-10T01:42:39.476Z,15.17
2022-09-10T01:43:11.572Z,15.18
2022-09-10T01:43:43.168Z,15.17
2022-09-10T01:44:42.518Z,15.18
2022-09-10T01:45:15.551Z,15.16
2022-09-10T01:45:50.329Z,15.17
2022-09-10T01:46:57.473Z,15.16
2022-09-10T01:48:06.166Z,15.17
2022-09-10T01:48:54.035Z,15.15
2022-09-10T01:50:00.247Z,15.15
2022-09-10T01:50:57.247Z,15.15
2022-09-10T01:51:55.193Z,15.13
2022-09-10T01:52:45.116Z,15.11
2022-09-10T01:53:35.407Z,15.10
2022-09-10T01:54:18.732Z,15.08
2022-09-10T01:55:06.407Z,15.08
2022-09-10T01:55:56.827Z,15.09
2022-09-10T01:56:47.811Z,15.10
2022-09-10T01:57:46.752Z,15.12
2022-09-10T01:58:40.549Z,15.11
2022-09-10T01:59:38.763Z,15.12
2022-09-10T02:00:16.915Z,15.12
2022-09-10T02:01:25.771Z,15.11
2022-09-10T02:02:09.452Z,15.11
2022-09-10T02:02:50.137Z,15.08
2022-09-10T02:03:25.388Z,15.08
2022-09-10T02:04:03.299Z,15.07
2022-09-10T02:04:35.673Z,15.07
2022-09-10T02:05:09.516Z,15.07
2022-09-10T02:05:44.002Z,15.07
2022-09-10T02:06:20.205Z,15.06
2022-09-10T02:06:52.030Z,15.06
2022-09-10T02:07:26.408Z,15.07
2022-09-10T02:08:05.076Z,15.10
2022-09-10T02:08:40.023Z,15.09
2022-09-10T02:09:12.912Z,15.08
2022-09-10T02:09:44.349Z,15.06
2022-09-10T02:10:16.095Z,15.08
2022-09-10T02:10:49.406Z,15.08
2022-09-10T02:11:21.382Z,15.10
2022-09-10T02:11:54.313Z,15.09
2022-09-10T02:12:25.667Z,15.07
2022-09-10T02:12:57.133Z,15.08
2022-09-10T02:13:29.849Z,15.10
2022-09-10T02:14:01.145Z,15.09
2022-09-10T02:14:32.488Z,15.11
2022-09-10T02:15:06.065Z,15.08
2022-09-10T02:15:38.328Z,15.10
2022-09-10T02:16:14.724Z,15.10
2022-09-10T02:16:53.497Z,15.07
2022-09-10T02:17:30.984Z,15.08
2022-09-10T02:18:02.311Z,15.07
2022-09-10T02:18:34.663Z,15.08
2022-09-10T02:19:08.088Z,15.08
2022-09-10T02:19:39.875Z,15.09
2022-09-10T02:20:14.276Z,15.11
2022-09-10T02:20:47.654Z,15.13
2022-09-10T02:21:18.983Z,15.13
2022-09-10T02:21:51.313Z,15.12
2022-09-10T02:22:23.821Z,15.11
2022-09-10T02:22:58.617Z,15.13
2022-09-10T02:23:37.157Z,15.11
2022-09-10T02:24:11.479Z,15.10
2022-09-10T02:24:44.459Z,15.11
2022-09-10T02:25:16.341Z,15.12
2022-09-10T02:25:49.085Z,15.13
2022-09-10T02:26:20.477Z,15.13
2022-09-10T02:26:51.863Z,15.14
2022-09-10T02:27:23.634Z,15.13
2022-09-10T02:27:55.079Z,15.14
2022-09-10T02:28:27.301Z,15.15
2022-09-10T02:28:59.259Z,15.13
2022-09-10T02:29:31.406Z,15.15
2022-09-10T02:30:02.881Z,15.16
2022-09-10T02:30:34.237Z,15.15
2022-09-10T02:31:05.739Z,15.15
2022-09-10T02:31:37.104Z,15.15
2022-09-10T02:32:09.352Z,15.16
2022-09-10T02:32:40.691Z,15.15
2022-09-10T02:33:12.011Z,15.13
2022-09-10T02:33:43.369Z,15.12
2022-09-10T02:34:15.969Z,15.12
2022-09-10T02:34:48.082Z,15.12
2022-09-10T02:35:20.315Z,15.11
2022-09-10T02:35:53.629Z,15.12
2022-09-10T02:36:25.999Z,15.12
2022-09-10T02:36:57.803Z,15.12
2022-09-10T02:37:29.589Z,15.14
2022-09-10T02:38:01.422Z,15.15
2022-09-10T02:38:32.756Z,15.14
2022-09-10T02:39:05.156Z,15.15
2022-09-10T02:39:36.573Z,15.14
2022-09-10T02:40:08.870Z,15.15
2022-09-10T02:40:40.208Z,15.15
2022-09-10T02:41:11.599Z,15.16
2022-09-10T02:41:43.240Z,15.17
2022-09-10T02:42:16.852Z,15.16
2022-09-10T02:42:48.177Z,15.18
2022-09-10T02:43:19.996Z,15.18
2022-09-10T02:43:52.640Z,15.18
2022-09-10T02:44:25.097Z,15.18
2022-09-10T02:44:56.523Z,15.17
2022-09-10T02:45:27.893Z,15.17
2022-09-10T02:45:59.943Z,15.16
2022-09-10T02:46:31.727Z,15.14
2022-09-10T02:47:03.078Z,15.13
2022-09-10T02:47:34.358Z,15.15
2022-09-10T02:48:05.676Z,15.16
2022-09-10T02:48:37.265Z,15.15
2022-09-10T02:49:09.077Z,15.16
2022-09-10T02:49:40.892Z,15.16
2022-09-10T02:50:12.537Z,15.16
2022-09-10T02:50:45.501Z,15.16
2022-09-10T02:51:16.821Z,15.16
2022-09-10T02:51:50.356Z,15.17
2022-09-10T02:52:21.972Z,15.17
2022-09-10T02:52:53.764Z,15.16
2022-09-10T02:53:26.010Z,15.18
2022-09-10T02:53:57.456Z,15.19
2022-09-10T02:54:29.421Z,15.20
2022-09-10T02:55:00.992Z,15.20
2022-09-10T02:55:32.622Z,15.21
2022-09-10T02:56:04.510Z,15.21
2022-09-10T02:56:36.414Z,15.21
2022-09-10T02:57:07.711Z,15.20
2022-09-10T02:57:39.761Z,15.21
2022-09-10T02:58:11.258Z,15.19
2022-09-10T02:58:43.079Z,15.19
2022-09-10T02:59:14.412Z,15.16
2022-09-10T02:59:45.706Z,15.18
2022-09-10T03:00:17.175Z,15.17
2022-09-10T03:00:48.742Z,15.18
2022-09-10T03:01:21.702Z,15.17
2022-09-10T03:01:54.401Z,15.16
2022-09-10T03:02:25.919Z,15.18
2022-09-10T03:03:02.286Z,15.20
2022-09-10T03:03:37.839Z,15.20
2022-09-10T03:04:09.213Z,15.20
2022-09-10T03:04:40.532Z,15.20
2022-09-10T03:05:11.855Z,15.21
2022-09-10T03:05:44.005Z,15.23
2022-09-10T03:06:15.512Z,15.24
2022-09-10T03:06:49.196Z,15.23
2022-09-10T03:07:20.739Z,15.23
2022-09-10T03:07:52.035Z,15.20
2022-09-10T03:08:23.350Z,15.22
2022-09-10T03:08:57.901Z,15.22
2022-09-10T03:09:29.257Z,15.24
2022-09-10T03:10:00.564Z,15.21
2022-09-10T03:10:32.217Z,15.21
2022-09-10T03:11:04.397Z,15.19
2022-09-10T03:11:39.434Z,15.20
2022-09-10T03:12:10.802Z,15.18
2022-09-10T03:12:42.222Z,15.20
2022-09-10T03:13:13.554Z,15.20
2022-09-10T03:13:46.105Z,15.20
2022-09-10T03:14:20.324Z,15.18
2022-09-10T03:14:51.959Z,15.19
2022-09-10T03:15:23.413Z,15.22
2022-09-10T03:15:56.204Z,15.20
2022-09-10T03:16:27.615Z,15.19
2022-09-10T03:17:00.129Z,15.24
2022-09-10T03:17:32.160Z,15.24
2022-09-10T03:18:03.587Z,15.23
2022-09-10T03:18:35.290Z,15.23
2022-09-10T03:19:06.829Z,15.25
2022-09-10T03:19:39.933Z,15.25
2022-09-10T03:20:11.261Z,15.24
2022-09-10T03:20:42.573Z,15.21
2022-09-10T03:21:18.314Z,15.24
2022-09-10T03:21:49.965Z,15.25
2022-09-10T03:22:21.414Z,15.26
2022-09-10T03:22:52.716Z,15.26
2022-09-10T03:23:24.209Z,15.26
2022-09-10T03:23:56.915Z,15.28
2022-09-10T03:24:28.573Z,15.29
2022-09-10T03:24:59.853Z,15.29
2022-09-10T03:25:31.144Z,15.30
2022-09-10T03:26:04.452Z,15.32
2022-09-10T03:26:35.927Z,15.32
2022-09-10T03:27:07.328Z,15.31
2022-09-10T03:27:39.095Z,15.32
2022-09-10T03:28:10.764Z,15.32
2022-09-10T03:28:43.847Z,15.32
2022-09-10T03:29:15.488Z,15.32
2022-09-10T03:29:47.116Z,15.32
2022-09-10T03:30:18.413Z,15.31
2022-09-10T03:30:49.710Z,15.31
2022-09-10T03:31:21.848Z,15.31
2022-09-10T03:31:53.236Z,15.30
2022-09-10T03:32:24.648Z,15.31
2022-09-10T03:32:56.000Z,15.31
2022-09-10T03:33:28.457Z,15.31
2022-09-10T03:33:59.945Z,15.30
2022-09-10T03:34:31.353Z,15.31
2022-09-10T03:35:02.736Z,15.32
2022-09-10T03:35:34.259Z,15.32
2022-09-10T03:36:05.762Z,15.28
2022-09-10T03:36:37.261Z,15.29
2022-09-10T03:37:08.584Z,15.29
2022-09-10T03:37:40.263Z,15.27
2022-09-10T03:38:11.578Z,15.26
2022-09-10T03:38:43.010Z,15.28
2022-09-10T03:39:18.340Z,15.29
2022-09-10T03:39:49.751Z,15.30
2022-09-10T03:40:21.151Z,15.30
2022-09-10T03:40:53.157Z,15.31
2022-09-10T03:41:27.055Z,15.32
2022-09-10T03:41:58.611Z,15.32
2022-09-10T03:42:30.092Z,15.32
2022-09-10T03:43:01.380Z,15.32
2022-09-10T03:43:32.755Z,15.33
2022-09-10T03:44:05.108Z,15.32
2022-09-10T03:44:36.501Z,15.32
2022-09-10T03:45:08.632Z,15.33
2022-09-10T03:45:39.920Z,15.31
2022-09-10T03:46:12.070Z,15.33
2022-09-10T03:46:43.772Z,15.29
2022-09-10T03:47:15.218Z,15.28
2022-09-10T03:47:47.396Z,15.30
2022-09-10T03:48:19.728Z,15.31
2022-09-10T03:48:55.333Z,15.29
2022-09-10T03:49:27.595Z,15.33
2022-09-10T03:49:59.674Z,15.33
2022-09-10T03:50:31.038Z,15.30
2022-09-10T03:51:02.349Z,15.32
2022-09-10T03:51:35.142Z,15.32
2022-09-10T03:52:06.581Z,15.30
2022-09-10T03:52:37.923Z,15.30
2022-09-10T03:53:09.512Z,15.31
2022-09-10T03:53:40.906Z,15.31
2022-09-10T03:54:13.876Z,15.31
2022-09-10T03:54:49.007Z,15.31
2022-09-10T03:55:22.102Z,15.31
2022-09-10T03:55:55.577Z,15.32
2022-09-10T03:56:27.954Z,15.32
2022-09-10T03:57:02.481Z,15.31
2022-09-10T03:57:34.044Z,15.31
2022-09-10T03:58:08.431Z,15.29
2022-09-10T03:58:40.001Z,15.34
2022-09-10T03:59:14.999Z,15.33
2022-09-10T03:59:46.315Z,15.34
2022-09-10T04:00:17.846Z,15.34
2022-09-10T04:00:49.296Z,15.33
2022-09-10T04:01:20.685Z,15.33
2022-09-10T04:01:52.032Z,15.32
2022-09-10T04:02:23.418Z,15.32
2022-09-10T04:02:54.958Z,15.32
2022-09-10T04:03:26.298Z,15.34
2022-09-10T04:03:58.145Z,15.33
2022-09-10T04:04:30.926Z,15.32
2022-09-10T04:05:02.233Z,15.34
2022-09-10T04:05:33.570Z,15.34
2022-09-10T04:06:05.050Z,15.35
2022-09-10T04:06:37.552Z,15.33
2022-09-10T04:07:10.792Z,15.37
2022-09-10T04:07:42.841Z,15.35
2022-09-10T04:08:15.241Z,15.36
2022-09-10T04:08:51.901Z,15.36
2022-09-10T04:09:23.461Z,15.36
2022-09-10T04:09:54.770Z,15.35
2022-09-10T04:10:26.808Z,15.34
2022-09-10T04:11:02.314Z,15.34
2022-09-10T04:11:33.791Z,15.35
2022-09-10T04:12:05.300Z,15.36
2022-09-10T04:12:37.285Z,15.33
2022-09-10T04:13:09.218Z,15.38
2022-09-10T04:13:40.580Z,15.36
2022-09-10T04:14:12.224Z,15.38
2022-09-10T04:14:45.375Z,15.37
2022-09-10T04:15:16.694Z,15.38
2022-09-10T04:15:47.987Z,15.38
2022-09-10T04:16:19.978Z,15.38
2022-09-10T04:16:52.425Z,15.37
2022-09-10T04:17:25.024Z,15.36
2022-09-10T04:17:56.529Z,15.37
2022-09-10T04:18:29.065Z,15.37
2022-09-10T04:19:00.615Z,15.37
2022-09-10T04:19:31.901Z,15.36
2022-09-10T04:20:03.746Z,15.37
2022-09-10T04:20:35.077Z,15.36
2022-09-10T04:21:06.605Z,15.39
2022-09-10T04:21:38.028Z,15.39
2022-09-10T04:22:09.353Z,15.41
2022-09-10T04:22:40.770Z,15.42
2022-09-10T04:23:12.108Z,15.43
2022-09-10T04:23:43.489Z,15.43
2022-09-10T04:24:14.913Z,15.45
2022-09-10T04:24:46.204Z,15.41
2022-09-10T04:25:18.784Z,15.42
2022-09-10T04:25:50.538Z,15.42
2022-09-10T04:26:22.751Z,15.41
2022-09-10T04:26:54.053Z,15.43
2022-09-10T04:27:26.547Z,15.41
2022-09-10T04:27:57.831Z,15.42
2022-09-10T04:28:29.260Z,15.40
2022-09-10T04:29:00.596Z,15.40
2022-09-10T04:29:32.242Z,15.42
2022-09-10T04:30:03.866Z,15.40
2022-09-10T04:30:35.186Z,15.39
2022-09-10T04:31:06.727Z,15.40
2022-09-10T04:31:38.789Z,15.40
2022-09-10T04:32:10.269Z,15.41
2022-09-10T04:32:41.766Z,15.41
2022-09-10T04:33:13.719Z,15.42
2022-09-10T04:33:45.299Z,15.39
2022-09-10T04:34:16.853Z,15.40
2022-09-10T04:34:48.224Z,15.40
2022-09-10T04:35:20.348Z,15.38
2022-09-10T04:35:51.644Z,15.39
2022-09-10T04:36:22.997Z,15.38
2022-09-10T04:36:54.295Z,15.37
2022-09-10T04:37:25.635Z,15.37
2022-09-10T04:37:56.920Z,15.38
2022-09-10T04:38:30.284Z,15.38
2022-09-10T04:39:01.567Z,15.40
2022-09-10T04:39:32.905Z,15.41
2022-09-10T04:40:05.010Z,15.41
2022-09-10T04:40:37.240Z,15.39
2022-09-10T04:41:09.354Z,15.41
2022-09-10T04:41:40.653Z,15.38
2022-09-10T04:42:14.977Z,15.38
2022-09-10T04:42:46.295Z,15.39
2022-09-10T04:43:21.068Z,15.38
2022-09-10T04:43:52.361Z,15.39
2022-09-10T04:44:24.176Z,15.37
2022-09-10T04:44:55.676Z,15.38
2022-09-10T04:45:27.203Z,15.36
2022-09-10T04:45:59.024Z,15.37
2022-09-10T04:46:30.375Z,15.37
2022-09-10T04:47:01.659Z,15.37
2022-09-10T04:47:34.120Z,15.38
2022-09-10T04:48:07.147Z,15.39
2022-09-10T04:48:39.264Z,15.37
2022-09-10T04:49:10.979Z,15.40
2022-09-10T04:49:43.591Z,15.40
2022-09-10T04:50:15.558Z,15.39
2022-09-10T04:51:12.294Z,15.40
2022-09-10T04:51:38.334Z,15.39
2022-09-10T04:52:13.113Z,15.38
2022-09-10T04:52:44.496Z,15.39
2022-09-10T04:53:16.339Z,15.39
2022-09-10T04:53:47.688Z,15.40
2022-09-10T04:54:19.621Z,15.39
2022-09-10T04:54:50.910Z,15.39
2022-09-10T04:55:22.288Z,15.38
2022-09-10T04:55:55.460Z,15.38
2022-09-10T04:56:26.804Z,15.38
2022-09-10T04:56:58.092Z,15.37
2022-09-10T04:57:29.407Z,15.35
2022-09-10T04:58:00.704Z,15.37
2022-09-10T04:58:36.651Z,15.37
2022-09-10T04:59:10.795Z,15.37
2022-09-10T04:59:42.136Z,15.38
2022-09-10T05:00:14.424Z,15.37
2022-09-10T05:00:45.769Z,15.38
2022-09-10T05:01:17.120Z,15.39
2022-09-10T05:01:51.126Z,15.37
2022-09-10T05:02:22.578Z,15.40
2022-09-10T05:02:53.888Z,15.41
2022-09-10T05:03:25.181Z,15.41
2022-09-10T05:03:56.670Z,15.42
2022-09-10T05:04:28.018Z,15.41
2022-09-10T05:04:59.396Z,15.42
2022-09-10T05:05:30.697Z,15.42
2022-09-10T05:06:02.739Z,15.41
2022-09-10T05:06:34.297Z,15.41
2022-09-10T05:07:05.788Z,15.39
2022-09-10T05:07:37.137Z,15.42
2022-09-10T05:08:08.650Z,15.42
2022-09-10T05:08:40.593Z,15.43
2022-09-10T05:09:12.019Z,15.41
2022-09-10T05:09:43.420Z,15.42
2022-09-10T05:10:15.266Z,15.41
2022-09-10T05:10:46.627Z,15.40
2022-09-10T05:11:21.265Z,15.36
2022-09-10T05:11:52.599Z,15.39
2022-09-10T05:12:24.125Z,15.39
2022-09-10T05:12:55.429Z,15.38
2022-09-10T05:13:26.732Z,15.38
2022-09-10T05:13:58.557Z,15.42
2022-09-10T05:14:30.533Z,15.42
2022-09-10T05:15:03.250Z,15.41
2022-09-10T05:15:35.877Z,15.43
2022-09-10T05:16:07.762Z,15.46
2022-09-10T05:16:40.508Z,15.46
2022-09-10T05:17:12.037Z,15.44
2022-09-10T05:17:43.938Z,15.46
2022-09-10T05:18:16.559Z,15.44
2022-09-10T05:18:48.377Z,15.45
2022-09-10T05:19:19.712Z,15.43
2022-09-10T05:19:51.015Z,15.42
2022-09-10T05:20:22.336Z,15.42
2022-09-10T05:20:53.942Z,15.41
2022-09-10T05:21:26.100Z,15.41
2022-09-10T05:21:57.400Z,15.41
2022-09-10T05:22:36.068Z,15.43
2022-09-10T05:23:10.067Z,15.44
2022-09-10T05:23:41.700Z,15.43
2022-09-10T05:24:13.012Z,15.44
2022-09-10T05:24:44.310Z,15.43
2022-09-10T05:25:15.758Z,15.43
2022-09-10T05:25:48.653Z,15.44
2022-09-10T05:26:20.029Z,15.45
2022-09-10T05:26:51.379Z,15.47
2022-09-10T05:27:22.653Z,15.47
2022-09-10T05:27:55.144Z,15.47
2022-09-10T05:28:26.436Z,15.47
2022-09-10T05:28:59.652Z,15.48
2022-09-10T05:29:30.964Z,15.44
2022-09-10T05:30:03.016Z,15.45
2022-09-10T05:30:34.301Z,15.44
2022-09-10T05:31:07.254Z,15.47
2022-09-10T05:31:38.741Z,15.47
2022-09-10T05:32:10.099Z,15.49
2022-09-10T05:32:41.414Z,15.47
2022-09-10T05:33:12.921Z,15.48
2022-09-10T05:33:44.485Z,15.48
2022-09-10T05:34:15.793Z,15.49
2022-09-10T05:34:48.544Z,15.50
2022-09-10T05:35:20.204Z,15.46
2022-09-10T05:35:51.599Z,15.47
2022-09-10T05:36:24.217Z,15.50
2022-09-10T05:36:56.294Z,15.50
2022-09-10T05:37:27.781Z,15.52
2022-09-10T05:38:01.163Z,15.51
2022-09-10T05:38:36.060Z,15.53
2022-09-10T05:39:09.524Z,15.52
2022-09-10T05:39:41.425Z,15.51
2022-09-10T05:40:14.256Z,15.51
2022-09-10T05:40:45.677Z,15.51
2022-09-10T05:41:16.976Z,15.53
2022-09-10T05:41:48.308Z,15.53
2022-09-10T05:42:21.844Z,15.54
2022-09-10T05:42:54.219Z,15.54
2022-09-10T05:43:25.545Z,15.53
2022-09-10T05:43:57.392Z,15.54
2022-09-10T05:44:28.704Z,15.54
2022-09-10T05:45:00.010Z,15.53
2022-09-10T05:45:31.362Z,15.57
2022-09-10T05:46:03.941Z,15.57
2022-09-10T05:46:35.498Z,15.58
2022-09-10T05:47:09.401Z,15.57
2022-09-10T05:47:40.753Z,15.54
2022-09-10T05:48:13.001Z,15.55
2022-09-10T05:48:44.484Z,15.58
2022-09-10T05:49:16.476Z,15.56
2022-09-10T05:49:49.174Z,15.58
2022-09-10T05:50:20.674Z,15.59
2022-09-10T05:50:52.562Z,15.56
2022-09-10T05:51:27.737Z,15.59
2022-09-10T05:51:59.163Z,15.61
2022-09-10T05:52:31.045Z,15.62
2022-09-10T05:53:02.439Z,15.62
2022-09-10T05:53:33.790Z,15.64
2022-09-10T05:54:05.513Z,15.66
2022-09-10T05:54:36.894Z,15.66
2022-09-10T05:55:09.121Z,15.65
2022-09-10T05:55:40.721Z,15.68
2022-09-10T05:56:12.702Z,15.69
2022-09-10T05:56:44.301Z,15.70
2022-09-10T05:57:15.715Z,15.71
2022-09-10T05:57:47.016Z,15.71
2022-09-10T05:58:18.296Z,15.71
2022-09-10T05:58:49.858Z,15.72
2022-09-10T05:59:21.330Z,15.73
2022-09-10T05:59:52.609Z,15.75
2022-09-10T06:00:25.372Z,15.74
2022-09-10T06:00:58.036Z,15.72
2022-09-10T06:01:31.945Z,15.72
2022-09-10T06:02:03.566Z,15.71
2022-09-10T06:02:35.784Z,15.72
2022-09-10T06:03:07.824Z,15.73
2022-09-10T06:03:40.330Z,15.75
2022-09-10T06:04:11.931Z,15.73
2022-09-10T06:04:43.591Z,15.75
2022-09-10T06:05:15.174Z,15.76
2022-09-10T06:05:53.131Z,15.78
2022-09-10T06:06:28.008Z,15.79
2022-09-10T06:07:01.951Z,15.77
2022-09-10T06:07:33.458Z,15.80
2022-09-10T06:08:08.595Z,15.78
2022-09-10T06:08:40.574Z,15.80
2022-09-10T06:09:11.999Z,15.81
2022-09-10T06:09:43.373Z,15.80
2022-09-10T06:10:15.336Z,15.80
2022-09-10T06:11:02.031Z,15.83
2022-09-10T06:11:33.352Z,15.82
2022-09-10T06:12:08.136Z,15.82
2022-09-10T06:12:40.067Z,15.81
2022-09-10T06:13:11.433Z,15.82
2022-09-10T06:13:42.724Z,15.81
2022-09-10T06:14:15.129Z,15.78
2022-09-10T06:14:46.411Z,15.79
2022-09-10T06:15:18.721Z,15.77
2022-09-10T06:15:50.117Z,15.82
2022-09-10T06:16:21.517Z,15.81
2022-09-10T06:16:54.632Z,15.79
2022-09-10T06:17:25.984Z,15.77
2022-09-10T06:17:57.901Z,15.77
2022-09-10T06:18:29.930Z,15.76
2022-09-10T06:19:01.286Z,15.75
2022-09-10T06:19:32.590Z,15.78
2022-09-10T06:20:04.905Z,15.79
2022-09-10T06:20:37.121Z,15.79
2022-09-10T06:21:15.772Z,15.79
2022-09-10T06:21:49.260Z,15.80
2022-09-10T06:22:20.567Z,15.79
2022-09-10T06:22:52.292Z,15.79
2022-09-10T06:23:23.574Z,15.79
2022-09-10T06:23:55.285Z,15.80
2022-09-10T06:24:26.588Z,15.80
2022-09-10T06:24:57.917Z,15.80
2022-09-10T06:25:29.399Z,15.79
2022-09-10T06:26:06.428Z,15.82
2022-09-10T06:26:37.721Z,15.80
2022-09-10T06:27:09.534Z,15.79
2022-09-10T06:27:41.405Z,15.80
2022-09-10T06:28:12.947Z,15.78
2022-09-10T06:28:44.555Z,15.80
2022-09-10T06:29:16.740Z,15.79
2022-09-10T06:29:48.133Z,15.81
2022-09-10T06:30:20.798Z,15.82
2022-09-10T06:30:52.161Z,15.82
2022-09-10T06:31:23.511Z,15.83
2022-09-10T06:31:55.398Z,15.84
2022-09-10T06:32:26.874Z,15.84
2022-09-10T06:32:58.176Z,15.84
2022-09-10T06:33:30.079Z,15.84
2022-09-10T06:34:01.941Z,15.84
2022-09-10T06:34:33.268Z,15.86
2022-09-10T06:35:05.450Z,15.86
2022-09-10T06:35:37.000Z,15.86
2022-09-10T06:36:10.090Z,15.87
2022-09-10T06:36:41.916Z,15.88
2022-09-10T06:37:13.200Z,15.89
2022-09-10T06:37:45.099Z,15.89
2022-09-10T06:38:16.355Z,15.92
2022-09-10T06:38:48.019Z,15.92
2022-09-10T06:39:19.288Z,15.92
2022-09-10T06:39:50.975Z,15.92
2022-09-10T06:40:22.269Z,15.91
2022-09-10T06:40:54.731Z,15.92
2022-09-10T06:41:26.894Z,15.92
2022-09-10T06:41:58.779Z,15.93
2022-09-10T06:42:32.075Z,15.94
2022-09-10T06:43:03.359Z,15.95
2022-09-10T06:43:36.672Z,15.96
2022-09-10T06:44:08.176Z,15.97
2022-09-10T06:44:39.456Z,15.97
2022-09-10T06:45:10.878Z,15.97
2022-09-10T06:45:42.180Z,15.99
2022-09-10T06:46:56.975Z,15.99
2022-09-10T06:47:55.470Z,15.99
2022-09-10T06:48:54.381Z,15.99
2022-09-10T06:49:25.846Z,15.98
2022-09-10T06:49:57.107Z,15.98
2022-09-10T06:50:28.536Z,16.00
2022-09-10T06:51:03.460Z,15.99
2022-09-10T06:51:34.771Z,16.01
2022-09-10T06:52:06.100Z,16.00
2022-09-10T06:52:39.220Z,16.00
2022-09-10T06:53:11.483Z,16.01
2022-09-10T06:53:46.256Z,16.02
2022-09-10T06:54:18.759Z,16.02
2022-09-10T06:54:51.427Z,16.03
2022-09-10T06:55:22.697Z,16.03
2022-09-10T06:55:54.683Z,16.05
2022-09-10T06:56:26.005Z,16.05
2022-09-10T06:56:57.845Z,16.05
2022-09-10T06:57:29.255Z,16.05
2022-09-10T06:58:00.573Z,16.06
2022-09-10T06:58:35.090Z,16.06
2022-09-10T06:59:06.507Z,16.07
2022-09-10T06:59:38.384Z,16.07
2022-09-10T07:00:10.228Z,16.08
2022-09-10T07:00:43.008Z,16.07
2022-09-10T07:01:19.673Z,16.09
2022-09-10T07:01:51.091Z,16.10
2022-09-10T07:02:22.458Z,16.11
2022-09-10T07:02:53.742Z,16.11
2022-09-10T07:03:25.012Z,16.13
2022-09-10T07:03:58.891Z,16.13
2022-09-10T07:04:30.179Z,16.13
2022-09-10T07:05:01.439Z,16.16
2022-09-10T07:05:33.369Z,16.15
2022-09-10T07:06:08.014Z,16.17
2022-09-10T07:06:39.385Z,16.18
2022-09-10T07:07:11.089Z,16.19
2022-09-10T07:07:42.370Z,16.20
2022-09-10T07:08:15.988Z,16.21
2022-09-10T07:08:47.266Z,16.23
2022-09-10T07:09:18.642Z,16.24
2022-09-10T07:09:49.915Z,16.25
2022-09-10T07:10:21.233Z,16.28
2022-09-10T07:10:52.523Z,16.28
2022-09-10T07:11:26.084Z,16.29
2022-09-10T07:11:57.469Z,16.30
2022-09-10T07:12:28.764Z,16.31
2022-09-10T07:13:01.078Z,16.32
2022-09-10T07:13:32.416Z,16.33
2022-09-10T07:14:03.711Z,16.34
2022-09-10T07:14:35.023Z,16.35
2022-09-10T07:15:06.773Z,16.37